sensor_id;sensor_type;location;lat;lon;timestamp;temperature;humidity
27306;DHT22;14792;50.886;6.468;2022-08-30T00:00:21;19.10;99.90
27306;DHT22;14792;50.886;6.468;2022-08-30T00:03:42;19.10;99.90
27306;DHT22;14792;50.886;6.468;2022-08-30T00:06:42;19.00;99.90
27306;DHT22;14792;50.886;6.468;2022-08-30T00:09:44;18.90;99.90
27306;DHT22;14792;50.886;6.468;2022-08-30T00:12:46;18.90;99.90
27306;DHT22;14792;50.886;6.468;2022-08-30T00:15:47;18.80;99.90
27306;DHT22;14792;50.886;6.468;2022-08-30T00:18:49;18.80;99.90
27306;DHT22;14792;50.886;6.468;2022-08-30T00:21:50;18.70;99.90
27306;DHT22;14792;50.886;6.468;2022-08-30T00:24:52;18.70;99.90
27306;DHT22;14792;50.886;6.468;2022-08-30T00:27:54;18.60;99.90
27306;DHT22;14792;50.886;6.468;2022-08-30T00:30:55;18.60;99.90
27306;DHT22;14792;50.886;6.468;2022-08-30T00:33:57;18.60;99.90
27306;DHT22;14792;50.886;6.468;2022-08-30T00:36:58;18.60;99.90
27306;DHT22;14792;50.886;6.468;2022-08-30T00:40:00;18.60;99.90
27306;DHT22;14792;50.886;6.468;2022-08-30T00:43:02;18.60;99.90
27306;DHT22;14792;50.886;6.468;2022-08-30T00:46:04;18.60;99.90
27306;DHT22;14792;50.886;6.468;2022-08-30T00:49:05;18.60;99.90
27306;DHT22;14792;50.886;6.468;2022-08-30T00:52:06;18.60;99.90
27306;DHT22;14792;50.886;6.468;2022-08-30T00:55:08;18.50;99.90
27306;DHT22;14792;50.886;6.468;2022-08-30T00:58:12;18.50;99.90
27306;DHT22;14792;50.886;6.468;2022-08-30T01:01:11;18.50;99.90
27306;DHT22;14792;50.886;6.468;2022-08-30T01:04:13;18.40;99.90
27306;DHT22;14792;50.886;6.468;2022-08-30T01:07:14;18.40;99.90
27306;DHT22;14792;50.886;6.468;2022-08-30T01:10:16;18.30;99.90
27306;DHT22;14792;50.886;6.468;2022-08-30T01:13:18;18.30;99.90
27306;DHT22;14792;50.886;6.468;2022-08-30T01:16:20;18.20;99.90
27306;DHT22;14792;50.886;6.468;2022-08-30T01:19:35;18.20;99.90
27306;DHT22;14792;50.886;6.468;2022-08-30T01:22:53;18.20;99.90
27306;DHT22;14792;50.886;6.468;2022-08-30T01:25:45;18.10;99.90
27306;DHT22;14792;50.886;6.468;2022-08-30T01:28:47;18.10;99.90
27306;DHT22;14792;50.886;6.468;2022-08-30T01:31:48;18.00;99.90
27306;DHT22;14792;50.886;6.468;2022-08-30T01:34:49;18.00;99.90
27306;DHT22;14792;50.886;6.468;2022-08-30T01:37:51;18.00;99.90
27306;DHT22;14792;50.886;6.468;2022-08-30T01:41:00;18.00;99.90
27306;DHT22;14792;50.886;6.468;2022-08-30T01:44:02;18.00;99.90
27306;DHT22;14792;50.886;6.468;2022-08-30T01:47:02;18.00;99.90
27306;DHT22;14792;50.886;6.468;2022-08-30T01:50:04;18.00;99.90
27306;DHT22;14792;50.886;6.468;2022-08-30T01:53:05;18.00;99.90
27306;DHT22;14792;50.886;6.468;2022-08-30T01:56:07;18.00;99.90
27306;DHT22;14792;50.886;6.468;2022-08-30T01:59:08;18.00;99.90
27306;DHT22;14792;50.886;6.468;2022-08-30T02:02:10;17.90;99.90
27306;DHT22;14792;50.886;6.468;2022-08-30T02:05:11;17.90;99.90
27306;DHT22;14792;50.886;6.468;2022-08-30T02:08:13;17.90;99.90
27306;DHT22;14792;50.886;6.468;2022-08-30T02:11:15;17.90;99.90
27306;DHT22;14792;50.886;6.468;2022-08-30T02:14:16;17.90;99.90
27306;DHT22;14792;50.886;6.468;2022-08-30T02:17:18;17.80;99.90
27306;DHT22;14792;50.886;6.468;2022-08-30T02:20:19;17.80;99.90
27306;DHT22;14792;50.886;6.468;2022-08-30T02:23:21;17.80;99.90
27306;DHT22;14792;50.886;6.468;2022-08-30T02:26:23;17.80;99.90
27306;DHT22;14792;50.886;6.468;2022-08-30T02:29:24;17.70;99.90
27306;DHT22;14792;50.886;6.468;2022-08-30T02:32:26;17.70;99.90
27306;DHT22;14792;50.886;6.468;2022-08-30T02:35:27;17.70;99.90
27306;DHT22;14792;50.886;6.468;2022-08-30T02:38:29;17.70;99.90
27306;DHT22;14792;50.886;6.468;2022-08-30T02:41:30;17.70;99.90
27306;DHT22;14792;50.886;6.468;2022-08-30T02:44:32;17.70;99.90
27306;DHT22;14792;50.886;6.468;2022-08-30T02:47:34;17.60;99.90
27306;DHT22;14792;50.886;6.468;2022-08-30T02:50:39;17.60;99.90
27306;DHT22;14792;50.886;6.468;2022-08-30T02:53:40;17.50;99.90
27306;DHT22;14792;50.886;6.468;2022-08-30T02:56:41;17.50;99.90
27306;DHT22;14792;50.886;6.468;2022-08-30T02:59:43;17.50;99.90
27306;DHT22;14792;50.886;6.468;2022-08-30T03:02:45;17.40;99.90
27306;DHT22;14792;50.886;6.468;2022-08-30T03:05:46;17.40;99.90
27306;DHT22;14792;50.886;6.468;2022-08-30T03:08:48;17.40;99.90
27306;DHT22;14792;50.886;6.468;2022-08-30T03:11:49;17.30;99.90
27306;DHT22;14792;50.886;6.468;2022-08-30T03:14:51;17.30;99.90
27306;DHT22;14792;50.886;6.468;2022-08-30T03:17:53;17.30;99.90
27306;DHT22;14792;50.886;6.468;2022-08-30T03:20:54;17.30;99.90
27306;DHT22;14792;50.886;6.468;2022-08-30T03:23:55;17.30;99.90
27306;DHT22;14792;50.886;6.468;2022-08-30T03:26:57;17.30;99.90
27306;DHT22;14792;50.886;6.468;2022-08-30T03:29:59;17.30;99.90
27306;DHT22;14792;50.886;6.468;2022-08-30T03:33:01;17.30;99.90
27306;DHT22;14792;50.886;6.468;2022-08-30T03:36:02;17.20;99.90
27306;DHT22;14792;50.886;6.468;2022-08-30T03:39:04;17.20;99.90
27306;DHT22;14792;50.886;6.468;2022-08-30T03:42:05;17.10;99.90
27306;DHT22;14792;50.886;6.468;2022-08-30T03:45:07;17.10;99.90
27306;DHT22;14792;50.886;6.468;2022-08-30T03:48:08;17.10;99.90
27306;DHT22;14792;50.886;6.468;2022-08-30T03:51:10;17.00;99.90
27306;DHT22;14792;50.886;6.468;2022-08-30T03:54:11;17.00;99.90
27306;DHT22;14792;50.886;6.468;2022-08-30T03:57:13;17.00;99.90
27306;DHT22;14792;50.886;6.468;2022-08-30T04:00:15;17.00;99.90
27306;DHT22;14792;50.886;6.468;2022-08-30T04:03:16;17.00;99.90
27306;DHT22;14792;50.886;6.468;2022-08-30T04:06:18;17.00;99.90
27306;DHT22;14792;50.886;6.468;2022-08-30T04:09:19;17.00;99.90
27306;DHT22;14792;50.886;6.468;2022-08-30T04:12:21;17.00;99.90
27306;DHT22;14792;50.886;6.468;2022-08-30T04:15:23;17.00;99.90
27306;DHT22;14792;50.886;6.468;2022-08-30T04:18:24;17.00;99.90
27306;DHT22;14792;50.886;6.468;2022-08-30T04:21:26;17.10;99.90
27306;DHT22;14792;50.886;6.468;2022-08-30T04:24:27;17.10;99.90
27306;DHT22;14792;50.886;6.468;2022-08-30T04:27:29;17.10;99.90
27306;DHT22;14792;50.886;6.468;2022-08-30T04:30:31;17.10;99.90
27306;DHT22;14792;50.886;6.468;2022-08-30T04:33:33;17.10;99.90
27306;DHT22;14792;50.886;6.468;2022-08-30T04:36:34;17.10;99.90
27306;DHT22;14792;50.886;6.468;2022-08-30T04:39:35;17.10;99.90
27306;DHT22;14792;50.886;6.468;2022-08-30T04:42:37;17.10;99.90
27306;DHT22;14792;50.886;6.468;2022-08-30T04:45:39;17.00;99.90
27306;DHT22;14792;50.886;6.468;2022-08-30T04:48:40;17.00;99.90
27306;DHT22;14792;50.886;6.468;2022-08-30T04:51:42;16.90;99.90
27306;DHT22;14792;50.886;6.468;2022-08-30T04:54:43;16.90;99.90
27306;DHT22;14792;50.886;6.468;2022-08-30T04:57:45;16.90;99.90
27306;DHT22;14792;50.886;6.468;2022-08-30T05:00:46;16.80;99.90
27306;DHT22;14792;50.886;6.468;2022-08-30T05:03:48;16.80;99.90
27306;DHT22;14792;50.886;6.468;2022-08-30T05:06:50;16.80;99.90
27306;DHT22;14792;50.886;6.468;2022-08-30T05:09:51;16.70;99.90
27306;DHT22;14792;50.886;6.468;2022-08-30T05:12:53;16.70;99.90
27306;DHT22;14792;50.886;6.468;2022-08-30T05:15:54;16.70;99.90
27306;DHT22;14792;50.886;6.468;2022-08-30T05:18:56;16.70;99.90
27306;DHT22;14792;50.886;6.468;2022-08-30T05:21:58;16.60;99.90
27306;DHT22;14792;50.886;6.468;2022-08-30T05:24:59;16.60;99.90
27306;DHT22;14792;50.886;6.468;2022-08-30T05:28:01;16.60;99.90
27306;DHT22;14792;50.886;6.468;2022-08-30T05:31:08;16.60;99.90
27306;DHT22;14792;50.886;6.468;2022-08-30T05:34:04;16.60;99.90
27306;DHT22;14792;50.886;6.468;2022-08-30T05:37:05;16.60;99.90
27306;DHT22;14792;50.886;6.468;2022-08-30T05:40:10;16.60;99.90
27306;DHT22;14792;50.886;6.468;2022-08-30T05:43:11;16.60;99.90
27306;DHT22;14792;50.886;6.468;2022-08-30T05:46:13;16.60;99.90
27306;DHT22;14792;50.886;6.468;2022-08-30T05:49:15;16.60;99.90
27306;DHT22;14792;50.886;6.468;2022-08-30T05:52:16;16.70;99.90
27306;DHT22;14792;50.886;6.468;2022-08-30T05:55:18;16.60;99.90
27306;DHT22;14792;50.886;6.468;2022-08-30T05:58:19;16.60;99.90
27306;DHT22;14792;50.886;6.468;2022-08-30T06:04:23;16.70;99.90
27306;DHT22;14792;50.886;6.468;2022-08-30T06:07:24;16.80;99.90
27306;DHT22;14792;50.886;6.468;2022-08-30T06:10:26;16.90;99.90
27306;DHT22;14792;50.886;6.468;2022-08-30T06:13:27;17.10;99.90
27306;DHT22;14792;50.886;6.468;2022-08-30T06:16:29;17.20;99.90
27306;DHT22;14792;50.886;6.468;2022-08-30T06:19:30;17.40;99.90
27306;DHT22;14792;50.886;6.468;2022-08-30T06:22:32;17.50;99.90
27306;DHT22;14792;50.886;6.468;2022-08-30T06:25:34;17.50;99.90
27306;DHT22;14792;50.886;6.468;2022-08-30T06:28:35;17.60;99.90
27306;DHT22;14792;50.886;6.468;2022-08-30T06:31:37;17.70;99.90
27306;DHT22;14792;50.886;6.468;2022-08-30T06:34:38;17.90;99.90
27306;DHT22;14792;50.886;6.468;2022-08-30T06:37:40;18.00;99.90
27306;DHT22;14792;50.886;6.468;2022-08-30T06:40:42;18.00;99.90
27306;DHT22;14792;50.886;6.468;2022-08-30T06:43:43;17.90;99.90
27306;DHT22;14792;50.886;6.468;2022-08-30T06:46:45;17.90;99.90
27306;DHT22;14792;50.886;6.468;2022-08-30T06:49:46;17.90;99.90
27306;DHT22;14792;50.886;6.468;2022-08-30T06:52:48;17.90;99.90
27306;DHT22;14792;50.886;6.468;2022-08-30T06:55:56;18.10;99.90
27306;DHT22;14792;50.886;6.468;2022-08-30T06:58:57;18.00;99.90
27306;DHT22;14792;50.886;6.468;2022-08-30T07:01:59;18.20;99.90
27306;DHT22;14792;50.886;6.468;2022-08-30T07:05:00;18.40;99.90
27306;DHT22;14792;50.886;6.468;2022-08-30T07:08:02;18.60;99.90
27306;DHT22;14792;50.886;6.468;2022-08-30T07:11:04;18.70;99.90
27306;DHT22;14792;50.886;6.468;2022-08-30T07:14:05;18.90;99.90
27306;DHT22;14792;50.886;6.468;2022-08-30T07:17:07;19.00;99.90
27306;DHT22;14792;50.886;6.468;2022-08-30T07:20:08;19.30;99.90
27306;DHT22;14792;50.886;6.468;2022-08-30T07:23:10;19.50;99.90
27306;DHT22;14792;50.886;6.468;2022-08-30T07:26:12;19.70;99.90
27306;DHT22;14792;50.886;6.468;2022-08-30T07:29:13;19.50;99.90
27306;DHT22;14792;50.886;6.468;2022-08-30T07:32:15;19.30;99.90
27306;DHT22;14792;50.886;6.468;2022-08-30T07:35:16;19.40;99.90
27306;DHT22;14792;50.886;6.468;2022-08-30T07:38:18;19.60;99.90
27306;DHT22;14792;50.886;6.468;2022-08-30T07:41:21;19.70;99.90
27306;DHT22;14792;50.886;6.468;2022-08-30T07:44:21;19.90;99.90
27306;DHT22;14792;50.886;6.468;2022-08-30T07:47:22;20.10;99.90
27306;DHT22;14792;50.886;6.468;2022-08-30T07:50:24;20.40;99.90
27306;DHT22;14792;50.886;6.468;2022-08-30T07:53:26;20.50;99.90
27306;DHT22;14792;50.886;6.468;2022-08-30T07:56:27;20.70;99.90
27306;DHT22;14792;50.886;6.468;2022-08-30T07:59:29;21.00;99.90
27306;DHT22;14792;50.886;6.468;2022-08-30T08:02:30;21.30;99.90
27306;DHT22;14792;50.886;6.468;2022-08-30T08:05:36;21.80;99.90
27306;DHT22;14792;50.886;6.468;2022-08-30T08:08:36;21.70;99.90
27306;DHT22;14792;50.886;6.468;2022-08-30T08:11:38;21.70;99.90
27306;DHT22;14792;50.886;6.468;2022-08-30T08:14:39;22.30;99.90
27306;DHT22;14792;50.886;6.468;2022-08-30T08:17:41;22.10;99.90
27306;DHT22;14792;50.886;6.468;2022-08-30T08:20:42;22.10;99.90
27306;DHT22;14792;50.886;6.468;2022-08-30T08:23:44;22.20;99.90
27306;DHT22;14792;50.886;6.468;2022-08-30T08:26:46;22.10;99.90
27306;DHT22;14792;50.886;6.468;2022-08-30T08:29:47;22.00;99.90
27306;DHT22;14792;50.886;6.468;2022-08-30T08:32:49;22.50;99.90
27306;DHT22;14792;50.886;6.468;2022-08-30T08:35:50;22.60;99.90
27306;DHT22;14792;50.886;6.468;2022-08-30T08:38:52;22.30;99.90
27306;DHT22;14792;50.886;6.468;2022-08-30T08:42:06;22.10;99.90
27306;DHT22;14792;50.886;6.468;2022-08-30T08:45:06;22.10;99.90
27306;DHT22;14792;50.886;6.468;2022-08-30T08:48:34;22.10;99.90
27306;DHT22;14792;50.886;6.468;2022-08-30T08:51:35;22.70;99.90
27306;DHT22;14792;50.886;6.468;2022-08-30T08:54:57;23.10;99.90
27306;DHT22;14792;50.886;6.468;2022-08-30T08:57:56;23.60;99.90
27306;DHT22;14792;50.886;6.468;2022-08-30T09:00:57;23.50;99.90
27306;DHT22;14792;50.886;6.468;2022-08-30T09:04:03;24.30;99.90
27306;DHT22;14792;50.886;6.468;2022-08-30T09:07:04;24.10;99.90
27306;DHT22;14792;50.886;6.468;2022-08-30T09:10:05;24.10;99.90
27306;DHT22;14792;50.886;6.468;2022-08-30T09:13:06;24.60;99.90
27306;DHT22;14792;50.886;6.468;2022-08-30T09:16:08;25.00;99.90
27306;DHT22;14792;50.886;6.468;2022-08-30T09:19:09;25.00;99.90
27306;DHT22;14792;50.886;6.468;2022-08-30T09:25:24;25.00;99.90
27306;DHT22;14792;50.886;6.468;2022-08-30T09:28:24;25.30;99.90
27306;DHT22;14792;50.886;6.468;2022-08-30T09:31:32;25.20;99.90
27306;DHT22;14792;50.886;6.468;2022-08-30T09:34:32;24.90;99.90
27306;DHT22;14792;50.886;6.468;2022-08-30T09:37:43;24.30;99.90
27306;DHT22;14792;50.886;6.468;2022-08-30T09:40:42;24.50;99.90
27306;DHT22;14792;50.886;6.468;2022-08-30T09:43:43;24.90;99.90
27306;DHT22;14792;50.886;6.468;2022-08-30T09:46:49;24.90;99.90
27306;DHT22;14792;50.886;6.468;2022-08-30T09:49:48;25.00;99.90
27306;DHT22;14792;50.886;6.468;2022-08-30T09:53:01;24.90;99.90
27306;DHT22;14792;50.886;6.468;2022-08-30T09:56:07;25.10;99.90
27306;DHT22;14792;50.886;6.468;2022-08-30T10:02:55;25.50;99.90
27306;DHT22;14792;50.886;6.468;2022-08-30T10:06:05;25.60;99.90
27306;DHT22;14792;50.886;6.468;2022-08-30T10:09:14;25.70;99.90
27306;DHT22;14792;50.886;6.468;2022-08-30T10:15:48;25.60;99.90
27306;DHT22;14792;50.886;6.468;2022-08-30T10:22:13;25.50;99.90
27306;DHT22;14792;50.886;6.468;2022-08-30T10:25:27;25.20;99.90
27306;DHT22;14792;50.886;6.468;2022-08-30T10:28:27;25.50;99.90
27306;DHT22;14792;50.886;6.468;2022-08-30T10:31:38;25.50;99.90
27306;DHT22;14792;50.886;6.468;2022-08-30T10:34:38;25.50;99.90
27306;DHT22;14792;50.886;6.468;2022-08-30T10:37:40;25.50;99.90
27306;DHT22;14792;50.886;6.468;2022-08-30T10:40:41;25.60;99.90
27306;DHT22;14792;50.886;6.468;2022-08-30T10:44:07;25.60;99.90
27306;DHT22;14792;50.886;6.468;2022-08-30T10:47:27;25.80;99.90
27306;DHT22;14792;50.886;6.468;2022-08-30T10:50:37;25.70;99.90
27306;DHT22;14792;50.886;6.468;2022-08-30T10:53:56;25.80;99.90
27306;DHT22;14792;50.886;6.468;2022-08-30T10:56:42;25.80;99.20
27306;DHT22;14792;50.886;6.468;2022-08-30T10:59:47;25.60;99.10
27306;DHT22;14792;50.886;6.468;2022-08-30T11:06:12;25.70;99.00
27306;DHT22;14792;50.886;6.468;2022-08-30T11:12:39;25.50;98.40
27306;DHT22;14792;50.886;6.468;2022-08-30T11:19:11;25.70;97.60
27306;DHT22;14792;50.886;6.468;2022-08-30T11:22:12;25.90;97.20
27306;DHT22;14792;50.886;6.468;2022-08-30T11:25:15;25.60;97.00
27306;DHT22;14792;50.886;6.468;2022-08-30T11:31:39;25.70;95.30
27306;DHT22;14792;50.886;6.468;2022-08-30T11:37:47;26.10;95.40
27306;DHT22;14792;50.886;6.468;2022-08-30T11:44:11;25.90;94.50
27306;DHT22;14792;50.886;6.468;2022-08-30T11:47:01;26.00;95.80
27306;DHT22;14792;50.886;6.468;2022-08-30T11:50:11;26.10;94.80
27306;DHT22;14792;50.886;6.468;2022-08-30T11:57:03;25.80;94.80
27306;DHT22;14792;50.886;6.468;2022-08-30T12:00:25;25.90;95.10
27306;DHT22;14792;50.886;6.468;2022-08-30T12:06:42;26.10;94.50
27306;DHT22;14792;50.886;6.468;2022-08-30T12:15:56;26.30;94.00
27306;DHT22;14792;50.886;6.468;2022-08-30T12:18:56;26.40;94.30
27306;DHT22;14792;50.886;6.468;2022-08-30T12:22:03;26.50;94.50
27306;DHT22;14792;50.886;6.468;2022-08-30T12:25:12;26.70;93.90
27306;DHT22;14792;50.886;6.468;2022-08-30T12:28:10;26.80;93.80
27306;DHT22;14792;50.886;6.468;2022-08-30T12:31:23;26.90;94.40
27306;DHT22;14792;50.886;6.468;2022-08-30T12:34:25;27.10;94.00
27306;DHT22;14792;50.886;6.468;2022-08-30T12:37:36;27.20;93.30
27306;DHT22;14792;50.886;6.468;2022-08-30T12:40:36;27.30;92.80
27306;DHT22;14792;50.886;6.468;2022-08-30T12:43:38;27.40;94.10
27306;DHT22;14792;50.886;6.468;2022-08-30T12:46:40;27.50;93.60
27306;DHT22;14792;50.886;6.468;2022-08-30T12:49:41;27.60;93.20
27306;DHT22;14792;50.886;6.468;2022-08-30T12:52:44;27.50;93.40
27306;DHT22;14792;50.886;6.468;2022-08-30T12:58:55;27.30;93.30
27306;DHT22;14792;50.886;6.468;2022-08-30T13:02:04;27.60;94.90
27306;DHT22;14792;50.886;6.468;2022-08-30T13:04:58;27.90;94.70
27306;DHT22;14792;50.886;6.468;2022-08-30T13:08:19;27.80;95.20
27306;DHT22;14792;50.886;6.468;2022-08-30T13:14:40;27.80;95.40
27306;DHT22;14792;50.886;6.468;2022-08-30T13:17:41;27.50;93.70
27306;DHT22;14792;50.886;6.468;2022-08-30T13:20:43;27.80;94.10
27306;DHT22;14792;50.886;6.468;2022-08-30T13:23:44;28.00;94.60
27306;DHT22;14792;50.886;6.468;2022-08-30T13:26:46;27.90;94.80
27306;DHT22;14792;50.886;6.468;2022-08-30T13:29:48;27.80;94.50
27306;DHT22;14792;50.886;6.468;2022-08-30T13:32:49;28.10;95.10
27306;DHT22;14792;50.886;6.468;2022-08-30T13:35:51;28.40;95.00
27306;DHT22;14792;50.886;6.468;2022-08-30T13:38:52;28.70;96.00
27306;DHT22;14792;50.886;6.468;2022-08-30T13:41:54;28.70;94.80
27306;DHT22;14792;50.886;6.468;2022-08-30T13:44:55;28.30;94.40
27306;DHT22;14792;50.886;6.468;2022-08-30T13:47:58;28.60;94.30
27306;DHT22;14792;50.886;6.468;2022-08-30T13:50:59;28.60;96.40
27306;DHT22;14792;50.886;6.468;2022-08-30T13:54:00;28.30;94.50
27306;DHT22;14792;50.886;6.468;2022-08-30T13:57:02;28.30;95.60
27306;DHT22;14792;50.886;6.468;2022-08-30T14:00:04;28.30;95.40
27306;DHT22;14792;50.886;6.468;2022-08-30T14:03:05;28.10;95.20
27306;DHT22;14792;50.886;6.468;2022-08-30T14:06:07;28.00;95.60
27306;DHT22;14792;50.886;6.468;2022-08-30T14:09:08;28.20;95.70
27306;DHT22;14792;50.886;6.468;2022-08-30T14:12:10;28.20;94.90
27306;DHT22;14792;50.886;6.468;2022-08-30T14:15:11;28.40;96.00
27306;DHT22;14792;50.886;6.468;2022-08-30T14:18:13;28.20;95.90
27306;DHT22;14792;50.886;6.468;2022-08-30T14:21:14;28.30;95.80
27306;DHT22;14792;50.886;6.468;2022-08-30T14:24:16;28.50;95.10
27306;DHT22;14792;50.886;6.468;2022-08-30T14:27:18;28.60;95.40
27306;DHT22;14792;50.886;6.468;2022-08-30T14:30:19;28.60;94.60
27306;DHT22;14792;50.886;6.468;2022-08-30T14:33:21;28.20;94.70
27306;DHT22;14792;50.886;6.468;2022-08-30T14:36:22;28.60;95.30
27306;DHT22;14792;50.886;6.468;2022-08-30T14:39:24;28.70;94.50
27306;DHT22;14792;50.886;6.468;2022-08-30T14:42:26;28.90;95.30
27306;DHT22;14792;50.886;6.468;2022-08-30T14:45:27;28.60;94.40
27306;DHT22;14792;50.886;6.468;2022-08-30T14:48:29;28.60;96.60
27306;DHT22;14792;50.886;6.468;2022-08-30T14:51:30;28.70;95.60
27306;DHT22;14792;50.886;6.468;2022-08-30T14:54:32;28.60;94.60
27306;DHT22;14792;50.886;6.468;2022-08-30T14:57:33;28.60;95.20
27306;DHT22;14792;50.886;6.468;2022-08-30T15:00:38;28.50;94.70
27306;DHT22;14792;50.886;6.468;2022-08-30T15:03:40;28.20;94.40
27306;DHT22;14792;50.886;6.468;2022-08-30T15:06:42;28.00;94.80
27306;DHT22;14792;50.886;6.468;2022-08-30T15:09:43;28.00;95.40
27306;DHT22;14792;50.886;6.468;2022-08-30T15:12:48;28.10;94.70
27306;DHT22;14792;50.886;6.468;2022-08-30T15:15:49;28.00;94.70
27306;DHT22;14792;50.886;6.468;2022-08-30T15:18:51;28.20;97.40
27306;DHT22;14792;50.886;6.468;2022-08-30T15:21:52;28.10;94.70
27306;DHT22;14792;50.886;6.468;2022-08-30T15:24:54;28.10;95.00
27306;DHT22;14792;50.886;6.468;2022-08-30T15:27:55;27.80;95.30
27306;DHT22;14792;50.886;6.468;2022-08-30T15:30:57;27.90;95.60
27306;DHT22;14792;50.886;6.468;2022-08-30T15:33:59;28.10;95.20
27306;DHT22;14792;50.886;6.468;2022-08-30T15:37:00;28.00;95.60
27306;DHT22;14792;50.886;6.468;2022-08-30T15:40:02;27.90;95.10
27306;DHT22;14792;50.886;6.468;2022-08-30T15:43:03;27.80;95.50
27306;DHT22;14792;50.886;6.468;2022-08-30T15:49:17;27.70;95.50
27306;DHT22;14792;50.886;6.468;2022-08-30T15:52:17;27.60;95.70
27306;DHT22;14792;50.886;6.468;2022-08-30T15:55:18;27.50;95.90
27306;DHT22;14792;50.886;6.468;2022-08-30T15:58:20;27.30;96.40
27306;DHT22;14792;50.886;6.468;2022-08-30T16:01:22;27.20;97.50
27306;DHT22;14792;50.886;6.468;2022-08-30T16:04:23;27.20;96.50
27306;DHT22;14792;50.886;6.468;2022-08-30T16:07:25;27.10;96.30
27306;DHT22;14792;50.886;6.468;2022-08-30T16:10:26;27.20;96.70
27306;DHT22;14792;50.886;6.468;2022-08-30T16:13:28;27.40;96.60
27306;DHT22;14792;50.886;6.468;2022-08-30T16:16:30;27.30;96.10
27306;DHT22;14792;50.886;6.468;2022-08-30T16:19:31;27.20;96.50
27306;DHT22;14792;50.886;6.468;2022-08-30T16:22:33;27.10;97.00
27306;DHT22;14792;50.886;6.468;2022-08-30T16:25:34;26.90;96.80
27306;DHT22;14792;50.886;6.468;2022-08-30T16:28:36;26.70;97.00
27306;DHT22;14792;50.886;6.468;2022-08-30T16:31:38;26.70;96.90
27306;DHT22;14792;50.886;6.468;2022-08-30T16:34:39;26.80;97.00
27306;DHT22;14792;50.886;6.468;2022-08-30T16:37:41;26.70;97.20
27306;DHT22;14792;50.886;6.468;2022-08-30T16:40:42;26.40;97.10
27306;DHT22;14792;50.886;6.468;2022-08-30T16:43:44;26.30;97.10
27306;DHT22;14792;50.886;6.468;2022-08-30T16:46:46;26.30;97.20
27306;DHT22;14792;50.886;6.468;2022-08-30T16:49:47;26.00;97.20
27306;DHT22;14792;50.886;6.468;2022-08-30T16:52:49;26.00;97.40
27306;DHT22;14792;50.886;6.468;2022-08-30T16:55:50;26.00;97.40
27306;DHT22;14792;50.886;6.468;2022-08-30T16:58:52;25.80;97.70
27306;DHT22;14792;50.886;6.468;2022-08-30T17:01:53;25.80;97.60
27306;DHT22;14792;50.886;6.468;2022-08-30T17:04:55;25.80;98.40
27306;DHT22;14792;50.886;6.468;2022-08-30T17:07:56;25.70;97.60
27306;DHT22;14792;50.886;6.468;2022-08-30T17:10:58;25.80;97.60
27306;DHT22;14792;50.886;6.468;2022-08-30T17:14:00;25.70;98.10
27306;DHT22;14792;50.886;6.468;2022-08-30T17:17:01;25.60;97.60
27306;DHT22;14792;50.886;6.468;2022-08-30T17:20:04;25.40;97.80
27306;DHT22;14792;50.886;6.468;2022-08-30T17:23:04;25.40;97.80
27306;DHT22;14792;50.886;6.468;2022-08-30T17:26:06;25.30;98.10
27306;DHT22;14792;50.886;6.468;2022-08-30T17:29:08;25.10;98.00
27306;DHT22;14792;50.886;6.468;2022-08-30T17:32:09;25.10;98.50
27306;DHT22;14792;50.886;6.468;2022-08-30T17:35:11;25.00;98.40
27306;DHT22;14792;50.886;6.468;2022-08-30T17:38:12;25.00;98.50
27306;DHT22;14792;50.886;6.468;2022-08-30T17:41:14;24.90;98.60
27306;DHT22;14792;50.886;6.468;2022-08-30T17:44:16;24.80;99.00
27306;DHT22;14792;50.886;6.468;2022-08-30T17:47:17;24.70;99.00
27306;DHT22;14792;50.886;6.468;2022-08-30T17:50:19;24.60;99.10
27306;DHT22;14792;50.886;6.468;2022-08-30T17:53:20;24.60;99.30
27306;DHT22;14792;50.886;6.468;2022-08-30T17:56:22;24.40;99.40
27306;DHT22;14792;50.886;6.468;2022-08-30T17:59:24;24.40;99.50
27306;DHT22;14792;50.886;6.468;2022-08-30T18:02:25;24.30;99.80
27306;DHT22;14792;50.886;6.468;2022-08-30T18:05:27;24.20;99.80
27306;DHT22;14792;50.886;6.468;2022-08-30T18:08:28;24.00;99.90
27306;DHT22;14792;50.886;6.468;2022-08-30T18:11:30;23.90;99.90
27306;DHT22;14792;50.886;6.468;2022-08-30T18:14:31;23.80;99.90
27306;DHT22;14792;50.886;6.468;2022-08-30T18:17:33;23.80;99.90
27306;DHT22;14792;50.886;6.468;2022-08-30T18:20:35;23.70;99.90
27306;DHT22;14792;50.886;6.468;2022-08-30T18:23:36;23.70;99.90
27306;DHT22;14792;50.886;6.468;2022-08-30T18:26:38;23.50;99.90
27306;DHT22;14792;50.886;6.468;2022-08-30T18:29:39;23.50;99.90
27306;DHT22;14792;50.886;6.468;2022-08-30T18:32:41;23.40;99.90
27306;DHT22;14792;50.886;6.468;2022-08-30T18:35:42;23.30;99.90
27306;DHT22;14792;50.886;6.468;2022-08-30T18:38:44;23.30;99.90
27306;DHT22;14792;50.886;6.468;2022-08-30T18:41:46;23.20;99.90
27306;DHT22;14792;50.886;6.468;2022-08-30T18:44:47;23.20;99.90
27306;DHT22;14792;50.886;6.468;2022-08-30T18:47:49;23.10;99.90
27306;DHT22;14792;50.886;6.468;2022-08-30T18:50:50;23.10;99.90
27306;DHT22;14792;50.886;6.468;2022-08-30T18:53:52;23.10;99.90
27306;DHT22;14792;50.886;6.468;2022-08-30T18:56:54;23.00;99.90
27306;DHT22;14792;50.886;6.468;2022-08-30T18:59:55;22.90;99.90
27306;DHT22;14792;50.886;6.468;2022-08-30T19:02:57;22.90;99.90
27306;DHT22;14792;50.886;6.468;2022-08-30T19:06:05;22.80;99.90
27306;DHT22;14792;50.886;6.468;2022-08-30T19:09:03;22.80;99.90
27306;DHT22;14792;50.886;6.468;2022-08-30T19:12:04;22.70;99.90
27306;DHT22;14792;50.886;6.468;2022-08-30T19:15:06;22.70;99.90
27306;DHT22;14792;50.886;6.468;2022-08-30T19:18:07;22.70;99.90
27306;DHT22;14792;50.886;6.468;2022-08-30T19:21:09;22.70;99.90
27306;DHT22;14792;50.886;6.468;2022-08-30T19:24:11;22.70;99.90
27306;DHT22;14792;50.886;6.468;2022-08-30T19:27:12;22.60;99.90
27306;DHT22;14792;50.886;6.468;2022-08-30T19:30:15;22.60;99.90
27306;DHT22;14792;50.886;6.468;2022-08-30T19:33:15;22.50;99.90
27306;DHT22;14792;50.886;6.468;2022-08-30T19:36:17;22.50;99.90
27306;DHT22;14792;50.886;6.468;2022-08-30T19:39:19;22.50;99.90
27306;DHT22;14792;50.886;6.468;2022-08-30T19:42:20;22.40;99.90
27306;DHT22;14792;50.886;6.468;2022-08-30T19:45:22;22.40;99.90
27306;DHT22;14792;50.886;6.468;2022-08-30T19:48:25;22.30;99.90
27306;DHT22;14792;50.886;6.468;2022-08-30T19:51:25;22.30;99.90
27306;DHT22;14792;50.886;6.468;2022-08-30T19:54:27;22.30;99.90
27306;DHT22;14792;50.886;6.468;2022-08-30T19:57:28;22.20;99.90
27306;DHT22;14792;50.886;6.468;2022-08-30T20:00:30;22.20;99.90
27306;DHT22;14792;50.886;6.468;2022-08-30T20:03:31;22.10;99.90
27306;DHT22;14792;50.886;6.468;2022-08-30T20:06:33;22.10;99.90
27306;DHT22;14792;50.886;6.468;2022-08-30T20:09:35;22.00;99.90